Time;durP1;ratioP1;P1;durP2;ratioP2;P2;SDS_P1;SDS_P2;PMS_P1;PMS_P2;Temp;Humidity;BMP_temperature;BMP_pressure;BME280_temperature;BME280_humidity;BME280_pressure;Samples;Min_cycle;Max_cycle;Signal;HPM_P1;HPM_P2
2022/04/10 00:00:36;;;;;;;;;26.00;26.00;;;;;6.20;100.00;101714.03;6308476;22;44767;-82
2022/04/10 00:03:02;;;;;;;;;27.67;26.00;;;;;6.15;100.00;101719.44;6311916;22;45292;-82
2022/04/10 00:05:28;;;;;;;;;30.67;27.33;;;;;6.12;100.00;101722.16;6311823;22;44709;-83
2022/04/10 00:07:53;;;;;;;;;28.33;28.33;;;;;6.07;100.00;101716.19;6307728;22;44895;-82
2022/04/10 00:10:18;;;;;;;;;31.67;28.33;;;;;6.03;100.00;101719.81;6306333;22;45222;-82
2022/04/10 00:12:44;;;;;;;;;30.33;27.00;;;;;6.01;100.00;101712.91;6306837;22;45265;-82
2022/04/10 00:15:11;;;;;;;;;31.67;27.00;;;;;5.98;100.00;101711.19;6306829;22;44938;-82
2022/04/10 00:17:36;;;;;;;;;27.00;27.00;;;;;5.96;100.00;101706.91;6308010;22;45507;-81
2022/04/10 00:20:02;;;;;;;;;32.67;30.33;;;;;5.93;100.00;101706.06;6317771;22;44770;-82
2022/04/10 00:22:28;;;;;;;;;30.00;28.00;;;;;5.91;100.00;101701.75;6288559;22;44847;-83
2022/04/10 00:24:53;;;;;;;;;30.00;27.67;;;;;5.89;100.00;101698.28;6318812;22;44736;-82
2022/04/10 00:27:18;;;;;;;;;29.67;26.33;;;;;5.88;100.00;101701.84;6289385;22;45394;-83
2022/04/10 00:29:44;;;;;;;;;26.33;25.00;;;;;5.85;100.00;101699.28;6315014;22;44747;-82
2022/04/10 00:32:10;;;;;;;;;30.00;27.00;;;;;5.83;100.00;101703.75;6310971;22;44690;-81
2022/04/10 00:34:35;;;;;;;;;35.67;31.00;;;;;5.82;100.00;101699.41;6306545;22;44879;-82
2022/04/10 00:37:00;;;;;;;;;30.33;25.33;;;;;5.80;100.00;101703.84;6305335;22;45013;-81
2022/04/10 00:39:26;;;;;;;;;29.67;28.33;;;;;5.77;100.00;101699.53;6305243;22;44860;-82
2022/04/10 00:41:51;;;;;;;;;27.67;26.00;;;;;5.74;100.00;101704.03;6306650;22;44866;-82
2022/04/10 00:44:17;;;;;;;;;33.67;27.00;;;;;5.66;100.00;101699.03;6303906;22;45259;-82
2022/04/10 00:46:42;;;;;;;;;32.67;25.33;;;;;5.54;100.00;101697.59;6278302;22;45290;-81
2022/04/10 00:49:08;;;;;;;;;22.33;22.33;;;;;5.48;100.00;101703.06;6305991;22;45264;-81
2022/04/10 00:51:40;;;;;;;;;25.00;24.00;;;;;5.42;100.00;101703.28;6306484;22;44665;-82
2022/04/10 00:54:09;;;;;;;;;18.67;18.33;;;;;5.36;100.00;101703.44;6311898;22;44747;-82
2022/04/10 00:56:35;;;;;;;;;28.00;24.33;;;;;5.29;100.00;101704.53;6313812;22;45066;-81
2022/04/10 00:59:02;;;;;;;;;28.33;28.33;;;;;5.24;100.00;101703.81;6316424;22;44707;-80
2022/04/10 01:01:28;;;;;;;;;28.67;24.33;;;;;5.22;100.00;101714.41;6312243;22;44672;-81
2022/04/10 01:03:53;;;;;;;;;28.00;24.33;;;;;5.22;100.00;101705.59;6278186;22;45538;-83
2022/04/10 01:06:19;;;;;;;;;31.33;26.33;;;;;5.23;100.00;101705.59;6305111;22;45266;-81
2022/04/10 01:08:44;;;;;;;;;28.00;25.67;;;;;5.22;100.00;101706.50;6306319;22;45258;-82
2022/04/10 01:11:11;;;;;;;;;27.00;23.00;;;;;5.23;100.00;101699.47;6306784;22;44823;-81
2022/04/10 01:13:37;;;;;;;;;30.00;30.00;;;;;5.25;100.00;101705.53;6305970;22;44856;-81
2022/04/10 01:16:02;;;;;;;;;27.00;23.67;;;;;5.24;100.00;101707.31;6307000;22;45106;-81
2022/04/10 01:18:28;;;;;;;;;31.33;31.33;;;;;5.24;100.00;101704.66;6311749;22;45387;-81
2022/04/10 01:20:54;;;;;;;;;34.00;27.00;;;;;5.23;100.00;101707.34;6313868;22;44751;-81
2022/04/10 01:23:20;;;;;;;;;33.67;26.33;;;;;5.19;100.00;101706.56;6309568;22;45240;-82
2022/04/10 01:25:46;;;;;;;;;28.33;25.33;;;;;5.15;100.00;101703.16;6277774;22;45331;-81
2022/04/10 01:28:12;;;;;;;;;25.33;25.33;;;;;5.06;100.00;101706.06;6308317;22;45203;-80
2022/04/10 01:30:39;;;;;;;;;29.67;27.33;;;;;5.00;100.00;101710.63;6311444;22;45470;-81
2022/04/10 01:33:05;;;;;;;;;28.00;26.00;;;;;4.94;100.00;101701.16;6310208;22;45274;-81
2022/04/10 01:35:32;;;;;;;;;32.00;25.00;;;;;4.90;100.00;101704.78;6305730;22;45141;-81
2022/04/10 01:38:00;;;;;;;;;25.00;24.33;;;;;4.85;100.00;101698.78;6308244;22;45180;-81
2022/04/10 01:40:26;;;;;;;;;38.00;27.33;;;;;4.83;100.00;101708.47;6306208;22;44673;-81
2022/04/10 01:42:52;;;;;;;;;28.00;25.00;;;;;4.79;100.00;101718.22;6306063;22;45401;-81
2022/04/10 01:45:17;;;;;;;;;21.67;17.67;;;;;4.78;100.00;101710.34;6277428;22;45437;-81
2022/04/10 01:47:43;;;;;;;;;33.33;27.67;;;;;4.80;100.00;101711.19;6304213;22;45380;-81
2022/04/10 01:50:10;;;;;;;;;30.67;27.67;;;;;4.81;100.00;101705.03;6307498;22;45389;-82
2022/04/10 01:52:36;;;;;;;;;30.00;25.33;;;;;4.85;100.00;101702.25;6280311;22;44817;-81
2022/04/10 01:55:01;;;;;;;;;30.67;26.67;;;;;4.84;100.00;101700.53;6308672;22;45202;-81
2022/04/10 01:57:27;;;;;;;;;32.33;26.33;;;;;4.82;100.00;101698.84;6306979;22;44554;-81
2022/04/10 01:59:54;;;;;;;;;35.00;28.00;;;;;4.79;100.00;101691.91;6312679;22;44613;-81
2022/04/10 02:02:19;;;;;;;;;36.33;33.00;;;;;4.75;100.00;101697.31;6312407;22;45235;-81
2022/04/10 02:04:44;;;;;;;;;29.67;28.33;;;;;4.69;100.00;101693.06;6311472;22;44874;-83
2022/04/10 02:07:10;;;;;;;;;27.67;26.00;;;;;4.64;100.00;101692.31;6312929;22;45250;-81
2022/04/10 02:09:35;;;;;;;;;31.33;27.67;;;;;4.57;100.00;101690.75;6282221;22;45235;-82
2022/04/10 02:12:00;;;;;;;;;34.33;32.00;;;;;4.50;100.00;101699.72;6313146;22;45213;-83
2022/04/10 02:14:26;;;;;;;;;33.67;33.67;;;;;4.44;100.00;101698.09;6313950;22;45497;-82
2022/04/10 02:16:51;;;;;;;;;35.67;32.00;;;;;4.37;100.00;101696.53;6306461;22;45245;-82
2022/04/10 02:19:16;;;;;;;;;35.67;29.33;;;;;4.32;100.00;101698.44;6311304;22;44743;-82
2022/04/10 02:21:42;;;;;;;;;41.67;37.00;;;;;4.27;100.00;101695.91;6279139;22;45306;-80
2022/04/10 02:24:08;;;;;;;;;46.33;34.67;;;;;4.24;100.00;101705.63;6305738;22;45277;-82
2022/04/10 02:26:33;;;;;;;;;37.00;35.33;;;;;4.18;100.00;101700.53;6306379;22;44771;-82
2022/04/10 02:29:00;;;;;;;;;33.67;32.67;;;;;4.15;100.00;101716.38;6277622;22;44755;-82
2022/04/10 02:31:25;;;;;;;;;40.33;36.67;;;;;4.11;100.00;101707.72;6305806;22;45486;-82
2022/04/10 02:33:51;;;;;;;;;45.00;37.00;;;;;4.07;100.00;101703.44;6305314;22;45414;-82
2022/04/10 02:36:16;;;;;;;;;42.67;39.00;;;;;4.02;100.00;101707.94;6305349;22;44781;-83
2022/04/10 02:38:42;;;;;;;;;38.33;35.67;;;;;3.97;100.00;101713.31;6306176;22;44814;-82
2022/04/10 02:41:07;;;;;;;;;45.67;36.00;;;;;3.95;100.00;101711.59;6308537;22;44788;-82
2022/04/10 02:43:34;;;;;;;;;43.67;35.00;;;;;3.89;100.00;101717.03;6314028;22;45921;-82
2022/04/10 02:45:59;;;;;;;;;45.00;39.00;;;;;3.86;100.00;101715.31;6314749;22;44669;-82
2022/04/10 02:48:25;;;;;;;;;50.33;41.33;;;;;3.82;100.00;101716.28;6314806;22;45227;-83
2022/04/10 02:50:50;;;;;;;;;46.33;39.33;;;;;3.78;100.00;101726.03;6309772;22;44796;-82
2022/04/10 02:53:16;;;;;;;;;46.67;39.00;;;;;3.73;100.00;101717.38;6313692;22;45092;-82
2022/04/10 02:55:41;;;;;;;;;54.33;42.33;;;;;3.69;100.00;101707.84;6287747;22;44717;-83
2022/04/10 02:58:07;;;;;;;;;45.67;38.33;;;;;3.67;100.00;101714.00;6315847;22;45244;-82
2022/04/10 03:00:32;;;;;;;;;51.67;42.67;;;;;3.65;100.00;101723.69;6289247;22;44937;-82
2022/04/10 03:02:58;;;;;;;;;49.67;42.00;;;;;3.62;100.00;101729.88;6322077;22;45088;-84
2022/04/10 03:05:23;;;;;;;;;45.67;40.00;;;;;3.58;100.00;101721.22;6318266;22;44738;-81
2022/04/10 03:07:48;;;;;;;;;53.33;42.67;;;;;3.56;100.00;101723.00;6321361;22;44900;-82
2022/04/10 03:10:14;;;;;;;;;45.33;39.67;;;;;3.54;100.00;101723.94;6310907;22;44745;-82
2022/04/10 03:12:39;;;;;;;;;48.67;41.00;;;;;3.50;100.00;101723.13;6284317;22;45110;-83
2022/04/10 03:15:05;;;;;;;;;47.00;41.00;;;;;3.50;100.00;101733.66;6309080;22;45284;-82
2022/04/10 03:17:31;;;;;;;;;53.33;44.00;;;;;3.48;100.00;101738.09;6306572;22;45239;-82
2022/04/10 03:19:56;;;;;;;;;46.33;38.33;;;;;3.47;100.00;101733.69;6277854;22;45536;-82
2022/04/10 03:22:21;;;;;;;;;49.67;41.33;;;;;3.44;100.00;101733.78;6277763;22;46445;-82
2022/04/10 03:24:47;;;;;;;;;50.33;42.00;;;;;3.43;100.00;101736.44;6305189;22;44684;-82
2022/04/10 03:27:12;;;;;;;;;50.33;42.00;;;;;3.39;100.00;101734.78;6306306;22;44789;-81
2022/04/10 03:29:37;;;;;;;;;57.00;44.00;;;;;3.37;100.00;101736.56;6307477;22;44824;-82
2022/04/10 03:32:03;;;;;;;;;59.67;45.33;;;;;3.34;100.00;101746.25;6310686;22;45089;-82
2022/04/10 03:34:28;;;;;;;;;52.33;43.33;;;;;3.32;100.00;101744.53;6306700;22;44624;-82
2022/04/10 03:36:55;;;;;;;;;54.67;43.67;;;;;3.29;100.00;101739.38;6307297;22;44701;-83
2022/04/10 03:39:20;;;;;;;;;57.33;47.00;;;;;3.27;100.00;101744.63;6280220;22;44785;-82
2022/04/10 03:41:46;;;;;;;;;53.00;43.00;;;;;3.24;100.00;101736.84;6304368;22;46300;-81
2022/04/10 03:44:11;;;;;;;;;54.00;44.00;;;;;3.22;100.00;101740.38;6304406;22;45578;-82
2022/04/10 03:46:37;;;;;;;;;56.00;43.67;;;;;3.21;100.00;101744.75;6306810;22;45433;-82
2022/04/10 03:49:02;;;;;;;;;57.67;46.00;;;;;3.20;100.00;101736.94;6306499;22;45379;-82
2022/04/10 03:51:27;;;;;;;;;59.67;47.33;;;;;3.18;100.00;101738.69;6307231;22;44977;-80
2022/04/10 03:53:53;;;;;;;;;56.33;45.67;;;;;3.16;100.00;101746.63;6307915;22;44717;-82
2022/04/10 03:56:18;;;;;;;;;51.67;43.33;;;;;3.11;100.00;101734.47;6312031;22;45429;-81
2022/04/10 03:58:43;;;;;;;;;58.67;44.00;;;;;3.08;100.00;101738.03;6313049;22;44851;-82
2022/04/10 04:01:10;;;;;;;;;59.33;46.00;;;;;3.03;100.00;101743.34;6306991;22;45176;-81
2022/04/10 04:03:36;;;;;;;;;56.00;46.00;;;;;3.00;100.00;101735.56;6307899;22;44732;-82
2022/04/10 04:06:01;;;;;;;;;52.67;45.00;;;;;2.98;100.00;101742.59;6305177;22;44660;-81
2022/04/10 04:08:27;;;;;;;;;57.67;43.67;;;;;2.96;100.00;101747.00;6280906;22;44928;-82
2022/04/10 04:10:52;;;;;;;;;63.67;46.67;;;;;2.96;100.00;101738.28;6283836;22;46274;-82
2022/04/10 04:13:17;;;;;;;;;58.67;47.67;;;;;2.94;100.00;101742.66;6316729;22;45111;-82
2022/04/10 04:15:43;;;;;;;;;58.00;47.67;;;;;2.92;100.00;101737.47;6284279;22;44739;-83
2022/04/10 04:18:08;;;;;;;;;54.33;45.67;;;;;2.89;100.00;101741.91;6307823;22;45127;-83
2022/04/10 04:20:33;;;;;;;;;63.33;49.00;;;;;2.86;100.00;101732.34;6306572;22;45016;-82
2022/04/10 04:22:59;;;;;;;;;61.67;49.00;;;;;2.83;100.00;101732.38;6305614;22;44580;-82
2022/04/10 04:25:24;;;;;;;;;60.33;50.00;;;;;2.81;100.00;101736.81;6311062;22;44733;-82
2022/04/10 04:27:50;;;;;;;;;60.33;48.00;;;;;2.78;100.00;101742.97;6308297;22;45052;-82
2022/04/10 04:30:15;;;;;;;;;58.33;45.33;;;;;2.74;100.00;101743.91;6306760;22;45180;-82
2022/04/10 04:32:42;;;;;;;;;56.33;46.33;;;;;2.74;100.00;101746.53;6306531;22;44652;-82
2022/04/10 04:35:10;;;;;;;;;57.33;45.00;;;;;2.71;100.00;101745.75;6278274;22;45373;-82
2022/04/10 04:37:40;;;;;;;;;53.67;45.67;;;;;2.69;100.00;101744.88;6305917;22;44829;-81
2022/04/10 04:40:09;;;;;;;;;54.00;45.67;;;;;2.67;100.00;101749.31;6306383;22;45400;-82
2022/04/10 04:42:34;;;;;;;;;55.67;45.33;;;;;2.66;100.00;101760.66;6306164;22;44761;-81
2022/04/10 04:45:00;;;;;;;;;59.67;46.67;;;;;2.64;100.00;101757.22;6306321;22;44744;-81
2022/04/10 04:47:25;;;;;;;;;54.33;45.33;;;;;2.61;100.00;101758.16;6277464;22;45519;-81
2022/04/10 04:49:50;;;;;;;;;60.00;47.67;;;;;2.61;100.00;101767.75;6307729;22;45185;-82
2022/04/10 04:52:16;;;;;;;;;56.67;47.00;;;;;2.58;100.00;101766.94;6317894;22;44744;-82
2022/04/10 04:54:43;;;;;;;;;63.67;51.33;;;;;2.57;100.00;101777.47;6317424;22;44763;-81
2022/04/10 04:57:09;;;;;;;;;54.33;43.33;;;;;2.57;100.00;101786.19;6312341;22;45183;-81
2022/04/10 04:59:34;;;;;;;;;57.00;47.00;;;;;2.55;100.00;101777.47;6307327;22;45092;-82
2022/04/10 05:01:59;;;;;;;;;59.33;48.00;;;;;2.55;100.00;101781.84;6305892;22;45268;-82
2022/04/10 05:04:25;;;;;;;;;58.00;48.67;;;;;2.55;100.00;101800.22;6305701;22;44949;-80
2022/04/10 05:06:50;;;;;;;;;63.67;49.00;;;;;2.55;100.00;101784.47;6305583;22;45271;-80
2022/04/10 05:09:15;;;;;;;;;56.33;45.67;;;;;2.55;100.00;101781.84;6278389;22;46771;-83
2022/04/10 05:11:41;;;;;;;;;59.00;48.33;;;;;2.55;100.00;101790.59;6305577;22;44721;-82
2022/04/10 05:14:06;;;;;;;;;53.00;44.33;;;;;2.56;100.00;101791.44;6282833;22;44851;-82
2022/04/10 05:16:32;;;;;;;;;58.00;48.33;;;;;2.56;100.00;101783.56;6310017;22;44796;-78
2022/04/10 05:18:57;;;;;;;;;56.67;46.00;;;;;2.60;100.00;101792.25;6307855;22;45284;-82
2022/04/10 05:21:23;;;;;;;;;63.33;47.00;;;;;2.64;100.00;101794.81;6305910;22;44712;-81
2022/04/10 05:23:48;;;;;;;;;57.33;46.33;;;;;2.75;100.00;101786.75;6306966;22;45249;-81
2022/04/10 05:26:13;;;;;;;;;56.00;47.33;;;;;2.84;100.00;101792.69;6311797;22;45285;-82
2022/04/10 05:28:39;;;;;;;;;59.00;47.00;;;;;2.94;100.00;101784.66;6311067;22;45469;-83
2022/04/10 05:31:04;;;;;;;;;54.67;46.00;;;;;3.05;100.00;101788.84;6307544;22;44708;-82
2022/04/10 05:33:33;;;;;;;;;55.67;43.67;;;;;3.21;100.00;101792.03;6278124;22;44791;-80
2022/04/10 05:35:58;;;;;;;;;51.33;43.00;;;;;3.38;100.00;101790.81;6304249;22;45464;-81
2022/04/10 05:38:24;;;;;;;;;56.67;45.33;;;;;3.58;100.00;101796.53;6305465;22;45208;-80
2022/04/10 05:40:53;;;;;;;;;54.67;43.33;;;;;3.72;100.00;101798.84;6304183;22;45163;-79
2022/04/10 05:43:22;;;;;;;;;54.33;43.67;;;;;3.89;100.00;101801.13;6308275;22;44781;-83
2022/04/10 05:45:48;;;;;;;;;53.00;44.67;;;;;4.08;100.00;101803.31;6286303;22;44804;-82
2022/04/10 05:48:14;;;;;;;;;51.67;41.67;;;;;4.30;100.00;101806.31;6313370;22;45419;-82
2022/04/10 05:50:39;;;;;;;;;55.33;43.67;;;;;4.51;100.00;101806.69;6305956;22;44721;-82
2022/04/10 05:53:05;;;;;;;;;51.33;43.00;;;;;4.77;100.00;101806.88;6304749;22;45316;-81
2022/04/10 05:55:30;;;;;;;;;49.33;42.00;;;;;5.00;100.00;101802.81;6279350;22;44912;-82
2022/04/10 05:57:56;;;;;;;;;50.33;40.33;;;;;5.24;100.00;101803.91;6308646;22;45514;-82
2022/04/10 06:00:23;;;;;;;;;44.67;40.33;;;;;5.54;100.00;101800.41;6306236;22;45289;-83
2022/04/10 06:02:49;;;;;;;;;53.33;41.33;;;;;5.83;100.00;101801.31;6278651;22;45199;-81
2022/04/10 06:05:15;;;;;;;;;46.00;36.33;;;;;6.09;100.00;101798.78;6304504;22;44772;-82
2022/04/10 06:07:40;;;;;;;;;48.33;40.67;;;;;6.31;100.00;101801.59;6278480;22;46679;-82
2022/04/10 06:10:06;;;;;;;;;53.33;43.67;;;;;6.57;100.00;101806.00;6305991;22;45337;-83
2022/04/10 06:12:32;;;;;;;;;50.67;43.33;;;;;6.74;100.00;101797.53;6278316;22;44749;-83
2022/04/10 06:14:57;;;;;;;;;47.00;40.00;;;;;6.92;100.00;101802.19;6278601;22;44778;-82
2022/04/10 06:17:23;;;;;;;;;48.00;40.33;;;;;7.14;100.00;101809.38;6306459;22;46488;-82
2022/04/10 06:19:49;;;;;;;;;52.33;42.67;;;;;7.31;100.00;101809.63;6285389;22;45186;-83
2022/04/10 06:22:15;;;;;;;;;48.67;40.00;;;;;7.49;100.00;101797.50;6312094;22;44667;-83
2022/04/10 06:24:41;;;;;;;;;54.33;43.33;;;;;7.67;100.00;101807.41;6279903;22;44747;-82
2022/04/10 06:27:06;;;;;;;;;51.33;40.67;;;;;7.86;100.00;101812.84;6307246;22;45261;-83
2022/04/10 06:29:32;;;;;;;;;44.33;37.67;;;;;8.07;100.00;101812.94;6284509;22;44819;-81
2022/04/10 06:31:57;;;;;;;;;51.67;40.00;;;;;8.21;100.00;101807.97;6312487;22;44767;-82
2022/04/10 06:34:22;;;;;;;;;48.67;41.00;;;;;8.34;100.00;101805.69;6307454;22;44785;-83
2022/04/10 06:36:48;;;;;;;;;47.33;38.33;;;;;8.41;100.00;101807.19;6308906;22;45182;-81
2022/04/10 06:39:15;;;;;;;;;50.67;41.33;;;;;8.53;100.00;101809.34;6311260;22;44704;-83
2022/04/10 06:41:41;;;;;;;;;54.00;43.00;;;;;8.64;100.00;101801.81;6314242;22;45420;-82
2022/04/10 06:44:09;;;;;;;;;46.67;38.67;;;;;8.70;100.00;101804.22;6284901;22;44749;-82
2022/04/10 06:46:34;;;;;;;;;51.00;42.00;;;;;8.77;100.00;101804.81;6311208;22;45496;-83
2022/04/10 06:49:00;;;;;;;;;48.00;37.67;;;;;8.77;100.00;101807.47;6308239;22;45499;-83
2022/04/10 06:51:25;;;;;;;;;50.00;41.67;;;;;8.80;100.00;101811.75;6307267;22;44729;-81
2022/04/10 06:53:51;;;;;;;;;49.00;39.33;;;;;8.79;100.00;101802.97;6279727;22;45466;-82
2022/04/10 06:56:17;;;;;;;;;50.33;42.00;;;;;8.77;100.00;101807.47;6306400;22;45403;-83
2022/04/10 06:58:42;;;;;;;;;48.67;41.33;;;;;8.79;100.00;101802.09;6305647;22;45252;-81
2022/04/10 07:01:08;;;;;;;;;47.33;39.33;;;;;8.80;100.00;101795.88;6314825;22;44832;-83
2022/04/10 07:03:34;;;;;;;;;60.33;48.33;;;;;8.85;100.00;101801.84;6317597;22;44893;-82
2022/04/10 07:05:59;;;;;;;;;52.00;42.00;;;;;8.84;100.00;101798.31;6287001;22;46625;-83
2022/04/10 07:08:26;;;;;;;;;49.00;42.67;;;;;8.85;100.00;101805.38;6288818;22;44761;-84
2022/04/10 07:10:51;;;;;;;;;44.33;37.67;;;;;8.89;100.00;101795.47;6307327;22;45424;-84
2022/04/10 07:13:18;;;;;;;;;49.33;40.33;;;;;8.96;100.00;101803.13;6307670;22;44838;-81
2022/04/10 07:15:50;;;;;;;;;52.67;44.00;;;;;8.99;100.00;101810.06;6278496;22;46403;-82
2022/04/10 07:18:16;;;;;;;;;53.67;44.33;;;;;8.98;100.00;101795.94;6305324;22;44734;-82
2022/04/10 07:20:42;;;;;;;;;50.67;42.00;;;;;9.02;100.00;101805.50;6307455;22;44628;-82
2022/04/10 07:25:53;;;;;;;;;49.67;38.33;;;;;9.10;100.00;101805.16;6313698;22;44918;-83
2022/04/10 07:28:19;;;;;;;;;51.33;41.67;;;;;9.14;100.00;101804.13;6284520;22;44660;-83
2022/04/10 07:30:44;;;;;;;;;51.67;43.33;;;;;9.20;100.00;101802.97;6315283;22;45282;-83
2022/04/10 07:33:10;;;;;;;;;58.00;46.00;;;;;9.22;100.00;101801.97;6318099;22;44945;-83
2022/04/10 07:35:36;;;;;;;;;56.00;47.00;;;;;9.27;100.00;101799.13;6283950;22;45171;-82
2022/04/10 07:38:03;;;;;;;;;55.33;46.00;;;;;9.31;100.00;101806.00;6313761;22;45223;-82
2022/04/10 07:40:28;;;;;;;;;53.33;43.00;;;;;9.33;100.00;101813.88;6281676;22;44706;-83
2022/04/10 07:42:56;;;;;;;;;51.67;42.33;;;;;9.37;100.00;101811.03;6313087;22;44772;-83
2022/04/10 07:48:05;;;;;;;;;54.67;44.00;;;;;9.57;100.00;101823.38;6319498;22;45321;-84
2022/04/10 07:50:31;;;;;;;;;51.67;42.00;;;;;9.67;100.00;101807.91;6320813;22;44655;-83
2022/04/10 07:52:56;;;;;;;;;52.00;43.33;;;;;9.74;100.00;101804.06;6308294;22;44803;-83
2022/04/10 07:55:22;;;;;;;;;47.67;40.33;;;;;9.84;100.00;101808.00;6306037;22;44908;-83
2022/04/10 07:57:51;;;;;;;;;50.33;41.67;;;;;9.87;100.00;101807.88;6307896;22;44681;-84
2022/04/10 08:00:17;;;;;;;;;48.67;41.33;;;;;9.97;100.00;101803.84;6282711;22;45424;-82
2022/04/10 08:02:46;;;;;;;;;48.33;37.33;;;;;10.05;100.00;101811.44;6308343;22;45281;-83
2022/04/10 08:05:13;;;;;;;;;43.33;38.33;;;;;10.12;100.00;101810.22;6308432;22;45400;-84
2022/04/10 08:07:40;;;;;;;;;50.33;41.00;;;;;10.20;100.00;101805.41;6314252;22;45270;-85
2022/04/10 08:10:07;;;;;;;;;50.33;39.67;;;;;10.25;100.00;101802.53;6292245;22;45270;-84
2022/04/10 08:12:32;;;;;;;;;47.33;39.00;;;;;10.34;100.00;101806.56;6317877;22;44778;-84
2022/04/10 08:14:58;;;;;;;;;38.33;34.33;;;;;10.43;100.00;101806.09;6281073;22;46281;-82
2022/04/10 08:17:23;;;;;;;;;38.33;31.67;;;;;10.46;100.00;101798.84;6308165;22;44732;-82
2022/04/10 08:19:48;;;;;;;;;35.67;32.67;;;;;10.45;100.00;101802.44;6308870;22;45086;-85
2022/04/10 08:22:14;;;;;;;;;35.00;31.67;;;;;10.49;100.00;101804.03;6284494;22;44797;-85
2022/04/10 08:24:40;;;;;;;;;27.00;24.33;;;;;10.55;100.00;101809.03;6310367;22;45247;-84
2022/04/10 08:27:05;;;;;;;;;29.00;24.00;;;;;10.62;100.00;101803.41;6313531;22;44777;-85
2022/04/10 08:29:30;;;;;;;;;27.00;21.50;;;;;10.71;100.00;101798.47;6319738;22;44708;-83
2022/04/10 08:31:56;;;;;;;;;28.00;24.25;;;;;10.84;100.00;101803.19;6316539;22;45333;-83
2022/04/10 08:34:21;;;;;;;;;10.50;7.75;;;;;10.91;100.00;101802.78;6282214;22;45376;-83
2022/04/10 08:36:46;;;;;;;;;17.75;17.75;;;;;11.01;100.00;101808.47;6309319;22;44700;-82
2022/04/10 08:39:12;;;;;;;;;21.00;18.00;;;;;11.09;100.00;101800.97;6282682;22;45185;-83
2022/04/10 08:41:37;;;;;;;;;16.25;15.75;;;;;11.19;100.00;101798.69;6313207;22;44634;-83
2022/04/10 08:44:04;;;;;;;;;17.75;16.25;;;;;11.26;100.00;101806.25;6313611;22;44853;-84
2022/04/10 08:46:31;;;;;;;;;17.25;15.75;;;;;11.30;100.00;101805.16;6310934;22;44708;-83
2022/04/10 08:48:58;;;;;;;;;9.25;8.75;;;;;11.29;100.00;101810.56;6311530;22;44796;-82
2022/04/10 08:51:25;;;;;;;;;17.00;12.00;;;;;11.27;100.00;101808.00;6308045;22;44783;-83
2022/04/10 08:53:54;;;;;;;;;17.25;13.50;;;;;11.26;100.00;101808.06;6283418;22;46274;-83
2022/04/10 08:56:20;;;;;;;;;10.50;9.00;;;;;11.32;100.00;101805.97;6312566;22;45277;-83
2022/04/10 08:58:45;;;;;;;;;13.50;13.00;;;;;11.38;100.00;101804.78;6316825;22;45142;-87
2022/04/10 09:01:11;;;;;;;;;11.25;10.25;;;;;11.48;100.00;101800.66;6287754;22;44939;-86
2022/04/10 09:03:37;;;;;;;;;14.25;12.75;;;;;11.63;100.00;101808.78;6316836;22;45083;-88
2022/04/10 09:06:05;;;;;;;;;16.00;14.00;;;;;11.71;100.00;101796.78;6287531;22;45368;-89
2022/04/10 09:08:30;;;;;;;;;13.50;13.50;;;;;11.82;100.00;101797.06;6286763;22;44779;-89
2022/04/10 09:11:07;;;;;;;;;11.00;10.50;;;;;11.82;100.00;101802.38;6311227;22;45354;-88
2022/04/10 09:13:40;;;;;;;;;11.25;9.00;;;;;11.92;100.00;101808.06;6317894;22;45149;-89
2022/04/10 09:16:14;;;;;;;;;7.80;7.40;;;;;11.94;100.00;101805.31;6321888;22;44712;-88
2022/04/10 09:18:47;;;;;;;;;7.25;6.25;;;;;11.94;100.00;101803.53;6292993;22;44716;-88
2022/04/10 09:21:13;;;;;;;;;6.75;3.75;;;;;12.02;100.00;101811.94;6318599;22;44781;-84
2022/04/10 09:23:39;;;;;;;;;6.25;6.25;;;;;12.13;100.00;101800.66;6290480;22;45319;-87
2022/04/10 09:26:04;;;;;;;;;6.75;5.75;;;;;12.22;100.00;101801.97;6315807;22;44822;-88
2022/04/10 09:28:42;;;;;;;;;10.00;5.50;;;;;12.28;100.00;101805.16;6319949;22;45160;-87
2022/04/10 09:31:25;;;;;;;;;11.50;7.50;;;;;12.46;100.00;101805.88;6322462;22;44828;-87
2022/04/10 09:33:53;;;;;;;;;6.00;6.00;;;;;12.39;100.00;101801.03;6297001;22;45112;-86
2022/04/10 09:36:39;;;;;;;;;5.80;5.80;;;;;12.22;100.00;101802.81;6272591;22;44753;-86
2022/04/10 09:39:16;;;;;;;;;6.80;5.60;;;;;12.31;100.00;101799.63;6316515;22;44742;-86
2022/04/10 09:41:45;;;;;;;;;8.00;6.00;;;;;12.35;100.00;101803.84;6318340;22;44813;-88
2022/04/10 09:44:21;;;;;;;;;11.00;7.00;;;;;12.43;98.79;101805.22;6288290;22;46427;-89
2022/04/10 09:47:06;;;;;;;;;6.60;6.20;;;;;12.57;100.00;101803.47;6286824;22;44766;-88
2022/04/10 09:49:32;;;;;;;;;8.40;5.20;;;;;12.73;98.00;101808.75;6287691;22;44732;-88
2022/04/10 09:52:19;;;;;;;;;4.25;4.25;;;;;12.81;95.00;101800.28;6314914;22;44808;-88
2022/04/10 09:54:50;;;;;;;;;9.00;2.00;;;;;12.84;93.22;101797.47;6319534;22;45856;-88
2022/04/10 09:57:17;;;;;;;;;3.20;3.20;;;;;12.96;93.40;101804.75;6292945;22;44720;-87
2022/04/10 09:59:48;;;;;;;;;7.40;4.80;;;;;13.05;92.61;101798.84;6294744;22;44639;-83
2022/04/10 10:02:16;;;;;;;;;5.40;5.40;;;;;13.01;88.54;101801.81;6281745;22;44908;-85
2022/04/10 10:04:47;;;;;;;;;5.80;4.40;;;;;12.93;86.55;101798.72;6275366;22;46582;-85
2022/04/10 10:07:36;;;;;;;;;5.40;5.40;;;;;12.90;90.38;101797.09;6255155;22;45454;-84
2022/04/10 10:10:11;;;;;;;;;8.00;5.80;;;;;12.94;88.69;101795.94;6254920;22;44737;-85
2022/04/10 10:12:44;;;;;;;;;2.75;2.75;;;;;12.95;94.58;101792.34;6274260;22;45345;-84
2022/04/10 10:15:31;;;;;;;;;6.00;5.20;;;;;12.81;86.97;101795.84;6274548;22;45546;-85
2022/04/10 10:18:06;;;;;;;;;5.40;5.40;;;;;12.84;84.48;101800.13;6274743;22;44771;-84
2022/04/10 10:20:40;;;;;;;;;4.60;4.60;;;;;12.62;79.20;101792.56;6270084;22;45481;-85
2022/04/10 10:23:22;;;;;;;;;7.75;6.50;;;;;12.65;87.47;101780.84;6248437;22;45023;-85
2022/04/10 10:26:15;;;;;;;;;12.00;12.00;;;;;12.79;96.13;101773.72;6274774;22;45323;-85
2022/04/10 10:28:59;;;;;;;;;11.80;11.80;;;;;12.98;95.72;101776.16;6279138;22;44753;-85
2022/04/10 10:31:47;;;;;;;;;11.40;9.60;;;;;13.19;96.43;101770.47;6255344;22;45250;-84
2022/04/10 10:34:14;;;;;;;;;12.75;9.50;;;;;13.15;92.56;101769.81;6256051;22;44845;-85
2022/04/10 10:36:40;;;;;;;;;10.20;9.20;;;;;13.26;93.89;101763.84;6307309;22;45147;-84
2022/04/10 10:39:26;;;;;;;;;15.50;9.75;;;;;13.39;92.46;101762.09;6314408;22;45319;-85
2022/04/10 10:41:55;;;;;;;;;10.40;10.00;;;;;13.41;92.70;101759.34;6310831;22;44724;-84
2022/04/10 10:44:26;;;;;;;;;9.75;8.75;;;;;13.48;93.46;101760.69;6306054;22;44837;-84
2022/04/10 10:47:03;;;;;;;;;11.80;9.00;;;;;13.49;90.99;101760.59;6279736;22;45419;-85
2022/04/10 10:49:49;;;;;;;;;8.80;8.00;;;;;13.63;92.66;101759.69;6282221;22;45219;-86
2022/04/10 10:53:13;;;;;;;;;12.40;10.20;;;;;13.79;92.33;101759.59;6283048;22;45117;-86
2022/04/10 11:02:37;;;;;;;;;8.00;6.40;;;;;13.83;86.55;101745.09;6217523;22;45204;-85
2022/04/10 11:05:25;;;;;;;;;4.40;4.40;;;;;13.87;86.52;101744.78;6223460;22;44755;-84
2022/04/10 11:08:00;;;;;;;;;9.75;8.25;;;;;13.90;91.22;101743.75;6229481;22;44855;-85
2022/04/10 11:10:29;;;;;;;;;9.60;7.60;;;;;13.97;89.28;101737.03;6224415;22;47471;-85
2022/04/10 11:13:05;;;;;;;;;5.20;5.20;;;;;14.02;85.63;101731.38;6219175;22;44769;-84
2022/04/10 11:15:46;;;;;;;;;7.60;7.60;;;;;14.09;86.34;101725.56;6215443;22;45331;-84
2022/04/10 11:18:23;;;;;;;;;8.80;8.00;;;;;14.24;86.13;101730.84;6190232;22;44727;-85
2022/04/10 11:20:56;;;;;;;;;7.60;7.60;;;;;14.29;85.62;101731.38;6212048;22;47135;-84
2022/04/10 11:23:21;;;;;;;;;7.00;7.00;;;;;14.36;84.72;101719.34;6211026;22;45456;-85